Time;durP1;ratioP1;P1;durP2;ratioP2;P2;SDS_P1;SDS_P2;PMS_P1;PMS_P2;Temp;Humidity;BMP_temperature;BMP_pressure;BME280_temperature;BME280_humidity;BME280_pressure;Samples;Min_cycle;Max_cycle;Signal;HPM_P1;HPM_P2
2021/04/14 00:01:42;;;;;;;68.22;35.67;;;;;;;11.48;78.69;99360.22;5049196;28;20032;-39
2021/04/14 00:04:08;;;;;;;79.07;39.22;;;;;;;11.39;79.76;99361.56;5049396;28;20035;-37
2021/04/14 00:06:34;;;;;;;70.47;37.67;;;;;;;12.10;77.34;99358.41;5049833;28;20025;-38
2021/04/14 00:08:59;;;;;;;62.90;32.92;;;;;;;11.43;76.42;99347.56;5049106;28;20021;-38
2021/04/14 00:11:25;;;;;;;67.45;32.35;;;;;;;10.87;77.67;99348.41;5049250;28;20075;-38
2021/04/14 00:13:50;;;;;;;57.42;30.95;;;;;;;10.63;78.75;99355.31;5046803;28;20056;-38
2021/04/14 00:16:18;;;;;;;64.95;33.78;;;;;;;11.02;80.79;99361.41;5049194;28;20024;-38
2021/04/14 00:18:44;;;;;;;66.72;34.17;;;;;;;11.62;78.76;99364.41;5049209;28;20021;-38
2021/04/14 00:21:10;;;;;;;60.90;31.30;;;;;;;11.23;78.07;99365.56;5048707;28;20221;-37
2021/04/14 00:23:35;;;;;;;56.30;30.27;;;;;;;10.92;79.07;99361.88;5048488;28;20477;-38
2021/04/14 00:26:01;;;;;;;57.55;31.02;;;;;;;10.92;79.69;99357.38;5048678;28;20082;-37
2021/04/14 00:28:26;;;;;;;65.10;35.13;;;;;;;11.81;77.76;99365.25;5048859;28;20043;-38
2021/04/14 00:30:52;;;;;;;64.40;33.63;;;;;;;11.74;77.66;99357.31;5048615;28;20517;-39
2021/04/14 00:33:18;;;;;;;65.35;35.33;;;;;;;11.98;76.15;99351.38;5048373;28;20028;-38
2021/04/14 00:35:43;;;;;;;72.88;38.08;;;;;;;12.38;75.77;99350.91;5048717;28;20016;-38
2021/04/14 00:38:10;;;;;;;71.72;38.00;;;;;;;12.56;75.00;99352.72;5049057;28;20025;-38
2021/04/14 00:40:37;;;;;;;60.67;32.70;;;;;;;11.60;76.47;99358.50;5049223;28;20037;-37
2021/04/14 00:43:23;;;;;;;61.25;31.88;;;;;;;11.26;77.89;99355.28;5049222;28;20489;-39
2021/04/14 00:45:49;;;;;;;63.53;33.05;;;;;;;11.57;77.95;99360.78;5048659;28;20470;-38
2021/04/14 00:48:14;;;;;;;58.60;31.92;;;;;;;11.42;77.82;99350.44;5049190;28;20499;-39
2021/04/14 00:50:40;;;;;;;58.88;31.63;;;;;;;11.31;77.63;99342.16;5049256;28;20025;-39
2021/04/14 00:53:06;;;;;;;61.40;31.85;;;;;;;11.20;78.14;99345.50;5049309;28;20032;-38
2021/04/14 00:55:32;;;;;;;62.33;33.50;;;;;;;12.04;76.20;99345.97;5049319;28;20020;-38
2021/04/14 00:57:57;;;;;;;60.03;31.90;;;;;;;11.57;77.95;99350.91;5049149;28;20133;-38
2021/04/14 01:00:26;;;;;;;55.72;30.27;;;;;;;11.11;77.95;99344.16;5049107;28;20035;-37
2021/04/14 01:02:51;;;;;;;56.15;31.10;;;;;;;11.20;78.58;99340.19;5049127;28;20108;-38
2021/04/14 01:05:17;;;;;;;72.45;35.75;;;;;;;12.00;77.74;99343.97;5049420;28;20410;-39
2021/04/14 01:07:42;;;;;;;63.40;32.50;;;;;;;11.64;76.69;99327.69;5049178;28;20033;-37
2021/04/14 01:10:08;;;;;;;60.88;32.13;;;;;;;11.32;78.31;99316.31;5048879;28;20041;-37
2021/04/14 01:12:34;;;;;;;56.72;33.60;;;;;;;11.42;79.15;99323.81;5048802;28;20036;-38
2021/04/14 01:14:59;;;;;;;65.88;34.15;;;;;;;12.01;77.05;99317.06;5048745;28;20078;-37
2021/04/14 01:17:25;;;;;;;55.03;31.15;;;;;;;11.37;77.20;99316.47;5049023;28;20056;-38
2021/04/14 01:19:50;;;;;;;58.17;30.92;;;;;;;10.83;78.80;99317.91;5048739;28;20025;-38
2021/04/14 01:22:15;;;;;;;59.90;33.28;;;;;;;11.44;78.74;99327.91;5048930;28;20024;-38
2021/04/14 01:24:41;;;;;;;63.30;32.03;;;;;;;11.50;77.93;99320.88;5050610;28;20489;-38
2021/04/14 01:27:07;;;;;;;62.67;33.10;;;;;;;11.30;78.96;99319.19;5053001;28;20174;-38
2021/04/14 01:29:32;;;;;;;60.67;32.58;;;;;;;11.05;78.64;99305.06;5053051;28;20032;-38
2021/04/14 01:31:57;;;;;;;63.72;33.63;;;;;;;11.82;77.90;99294.09;5053020;28;20112;-37
2021/04/14 01:34:23;;;;;;;60.03;32.15;;;;;;;11.47;77.71;99286.66;5053277;28;20025;-38
2021/04/14 01:36:48;;;;;;;58.50;29.63;;;;;;;10.96;77.16;99286.69;5052949;28;20468;-38
2021/04/14 01:39:14;;;;;;;57.60;30.50;;;;;;;10.86;78.54;99291.69;5052992;28;20095;-38
2021/04/14 01:41:40;;;;;;;59.80;31.92;;;;;;;11.38;78.03;99296.78;5052709;28;20029;-38
2021/04/14 01:44:09;;;;;;;55.20;29.30;;;;;;;11.07;78.40;99292.34;5052466;28;20517;-38
2021/04/14 01:46:35;;;;;;;52.25;27.38;;;;;;;10.66;78.52;99283.03;5052712;28;20047;-38
2021/04/14 01:49:00;;;;;;;46.47;26.52;;;;;;;10.50;79.42;99284.38;5052517;28;20052;-38
2021/04/14 01:51:26;;;;;;;54.25;27.98;;;;;;;11.45;77.71;99280.75;5052452;28;20025;-39
2021/04/14 01:53:51;;;;;;;48.00;27.00;;;;;;;11.16;77.65;99280.41;5052454;28;20028;-39
2021/04/14 01:56:17;;;;;;;50.35;27.15;;;;;;;11.04;78.75;99279.47;5052556;28;20629;-38
2021/04/14 01:58:43;;;;;;;49.13;25.70;;;;;;;11.06;77.83;99280.91;5052452;28;20025;-38
2021/04/14 02:01:09;;;;;;;45.15;24.73;;;;;;;10.74;79.32;99278.28;5052132;28;20350;-37
2021/04/14 02:03:36;;;;;;;48.70;26.55;;;;;;;10.56;79.92;99271.00;5052486;28;20025;-38
2021/04/14 02:06:02;;;;;;;53.97;28.92;;;;;;;10.42;80.68;99271.31;5052649;28;20040;-37
2021/04/14 02:08:28;;;;;;;49.22;27.23;;;;;;;10.52;79.97;99264.50;5052369;28;20040;-38
2021/04/14 02:10:53;;;;;;;56.50;28.27;;;;;;;10.59;80.10;99264.47;5052069;28;20048;-39
2021/04/14 02:13:24;;;;;;;54.95;29.55;;;;;;;10.62;79.44;99272.00;5052053;28;20025;-38
2021/04/14 02:15:50;;;;;;;57.35;30.17;;;;;;;10.56;80.11;99283.50;5052060;28;20453;-38
2021/04/14 02:18:15;;;;;;;54.03;28.73;;;;;;;10.64;79.40;99279.75;5052178;28;20021;-38
2021/04/14 02:20:41;;;;;;;53.88;28.25;;;;;;;10.35;80.65;99282.00;5051379;28;20070;-39
2021/04/14 02:23:11;;;;;;;54.45;29.05;;;;;;;10.27;80.86;99277.69;5051170;28;20648;-38
2021/04/14 02:25:36;;;;;;;57.33;30.35;;;;;;;10.39;80.81;99274.41;5051119;28;20017;-38
2021/04/14 02:28:02;;;;;;;57.10;30.17;;;;;;;10.31;80.95;99281.59;5051830;28;20090;-38
2021/04/14 02:30:28;;;;;;;60.85;31.70;;;;;;;10.18;81.60;99281.63;5051726;28;20048;-39
2021/04/14 02:32:54;;;;;;;59.10;30.65;;;;;;;10.27;80.88;99274.25;5051762;28;20021;-39
2021/04/14 02:35:20;;;;;;;58.67;32.65;;;;;;;10.26;80.55;99273.44;5051390;28;20142;-39
2021/04/14 02:37:46;;;;;;;59.78;31.80;;;;;;;10.16;81.14;99279.19;5050957;28;20426;-38
2021/04/14 02:40:12;;;;;;;60.13;31.05;;;;;;;10.20;80.71;99281.44;5051156;28;20063;-39
2021/04/14 02:42:38;;;;;;;62.03;32.85;;;;;;;10.22;80.53;99272.19;5051329;28;20055;-37
2021/04/14 02:45:04;;;;;;;67.60;34.38;;;;;;;10.12;81.08;99272.66;5051293;28;20040;-38
2021/04/14 02:47:30;;;;;;;62.22;32.17;;;;;;;10.24;80.29;99279.97;5051217;28;20097;-38
2021/04/14 02:49:55;;;;;;;62.63;31.98;;;;;;;10.08;80.56;99270.66;5050062;28;20418;-38
2021/04/14 02:52:20;;;;;;;79.97;36.10;;;;;;;9.91;82.32;99275.63;5051390;28;20025;-38
2021/04/14 02:54:46;;;;;;;88.00;37.10;;;;;;;9.83;82.23;99265.22;5051195;28;20461;-39
2021/04/14 02:57:11;;;;;;;145.95;38.10;;;;;;;9.97;82.29;99282.75;5051256;28;20435;-38
2021/04/14 02:59:37;;;;;;;116.68;37.83;;;;;;;9.89;82.90;99283.00;5051079;28;20080;-39
2021/04/14 03:02:03;;;;;;;99.47;37.55;;;;;;;9.78;83.08;99303.06;5051330;28;20059;-38
2021/04/14 03:04:28;;;;;;;115.38;37.60;;;;;;;9.81;83.43;99299.19;5051131;28;20021;-38
2021/04/14 03:06:54;;;;;;;103.32;44.03;;;;;;;9.82;83.18;99314.88;5051361;28;20087;-38
2021/04/14 03:09:19;;;;;;;176.30;45.58;;;;;;;10.12;82.22;99317.84;5050795;28;20040;-38
2021/04/14 03:11:45;;;;;;;102.55;42.25;;;;;;;9.97;82.59;99333.25;5051036;28;20040;-38
2021/04/14 03:14:10;;;;;;;106.10;42.60;;;;;;;10.13;82.33;99353.25;5051072;28;20039;-37
2021/04/14 03:16:35;;;;;;;92.68;38.70;;;;;;;10.06;82.46;99355.94;5051276;28;20461;-37
2021/04/14 03:19:01;;;;;;;90.18;39.45;;;;;;;10.17;81.95;99354.47;5051322;28;20037;-38
2021/04/14 03:21:26;;;;;;;94.25;39.63;;;;;;;10.12;82.74;99365.72;5050985;28;20025;-38
2021/04/14 03:23:52;;;;;;;94.43;40.70;;;;;;;10.21;82.40;99365.50;5050972;28;20033;-38
2021/04/14 03:26:17;;;;;;;87.85;40.03;;;;;;;10.25;82.51;99367.53;5050904;28;20033;-38
2021/04/14 03:28:43;;;;;;;94.30;41.90;;;;;;;10.34;82.27;99373.47;5050730;28;20350;-38
2021/04/14 03:31:09;;;;;;;87.78;39.55;;;;;;;10.42;82.14;99372.41;5051007;28;20029;-38
2021/04/14 03:33:34;;;;;;;83.63;40.30;;;;;;;10.48;81.85;99375.03;5045568;28;20030;-38
2021/04/14 03:36:00;;;;;;;81.97;39.00;;;;;;;10.59;81.32;99380.72;5030731;28;20080;-39
2021/04/14 03:38:25;;;;;;;66.00;32.45;;;;;;;10.71;80.26;99381.66;5030771;28;20025;-39
2021/04/14 03:40:51;;;;;;;59.30;30.75;;;;;;;10.54;80.42;99379.50;5030543;28;20021;-38
2021/04/14 03:43:16;;;;;;;52.53;28.10;;;;;;;10.47;80.56;99375.22;5029272;28;20021;-39
2021/04/14 03:45:44;;;;;;;53.53;28.92;;;;;;;10.51;80.54;99376.47;5030277;28;20033;-40
2021/04/14 03:48:10;;;;;;;51.05;26.77;;;;;;;10.52;80.41;99378.09;5041862;28;20043;-38
2021/04/14 03:50:36;;;;;;;39.03;22.42;;;;;;;11.09;80.85;99378.16;5049609;28;20111;-39
2021/04/14 03:53:12;;;;;;;35.97;19.38;;;;;;;11.55;78.34;99375.13;5049515;28;20021;-39
2021/04/14 03:55:37;;;;;;;33.92;19.80;;;;;;;11.81;77.76;99362.59;5048400;28;20048;-53
2021/04/14 03:58:03;;;;;;;31.80;18.42;;;;;;;11.74;76.61;99373.31;5050260;28;20047;-54
2021/04/14 04:00:28;;;;;;;32.13;18.05;;;;;;;11.94;75.06;99375.00;5049370;28;20509;-51
2021/04/14 04:02:54;;;;;;;28.23;16.77;;;;;;;11.76;74.62;99366.97;5049432;28;20024;-52
2021/04/14 04:05:19;;;;;;;28.92;17.17;;;;;;;11.64;76.08;99370.34;5049158;28;20021;-52
2021/04/14 04:07:45;;;;;;;23.80;14.35;;;;;;;11.77;74.96;99374.75;5049112;28;20547;-50
2021/04/14 04:10:11;;;;;;;25.73;14.10;;;;;;;11.65;74.93;99379.97;5048553;28;20044;-53
2021/04/14 04:12:36;;;;;;;29.67;17.73;;;;;;;11.48;73.84;99378.88;5048619;28;20035;-51
2021/04/14 04:15:04;;;;;;;16.83;11.02;;;;;;;11.64;74.30;99375.66;5047923;28;20405;-51
2021/04/14 04:17:29;;;;;;;18.13;10.88;;;;;;;11.53;73.80;99381.72;5048501;28;20532;-50
2021/04/14 04:19:54;;;;;;;14.70;9.18;;;;;;;11.42;73.49;99375.22;5047922;28;20033;-49
2021/04/14 04:22:20;;;;;;;12.38;7.38;;;;;;;11.49;73.45;99388.50;5047558;28;20473;-49
2021/04/14 04:24:49;;;;;;;12.73;6.85;;;;;;;11.47;72.04;99380.72;5047905;28;20544;-50
2021/04/14 04:27:15;;;;;;;9.63;6.30;;;;;;;11.13;74.38;99380.16;5048513;28;20480;-51
2021/04/14 04:29:40;;;;;;;10.07;5.25;;;;;;;11.18;72.97;99384.88;5048219;28;20362;-50
2021/04/14 04:32:06;;;;;;;10.75;5.40;;;;;;;11.03;73.28;99376.38;5048455;28;20036;-51
2021/04/14 04:34:32;;;;;;;7.70;4.25;;;;;;;11.33;75.24;99389.88;5045689;28;20643;-51
2021/04/14 04:36:57;;;;;;;6.70;4.00;;;;;;;11.43;71.93;99390.19;5048936;28;20330;-51
2021/04/14 04:39:23;;;;;;;5.57;3.53;;;;;;;11.41;71.34;99392.28;5049122;28;20013;-53
2021/04/14 04:41:48;;;;;;;5.65;3.30;;;;;;;11.10;71.54;99387.78;5049241;28;20013;-39
2021/04/14 04:44:14;;;;;;;5.68;3.30;;;;;;;10.95;71.57;99391.56;5048507;28;20021;-39
2021/04/14 04:46:39;;;;;;;6.25;3.08;;;;;;;10.89;71.81;99379.13;5036032;28;20033;-38
2021/04/14 04:49:05;;;;;;;5.28;3.45;;;;;;;10.67;72.53;99385.78;5046606;28;20021;-39
2021/04/14 04:51:30;;;;;;;6.32;3.38;;;;;;;11.01;70.70;99381.09;5048790;28;20029;-40
2021/04/14 04:53:56;;;;;;;5.35;3.00;;;;;;;11.09;70.00;99380.81;5041970;28;20036;-38
2021/04/14 04:56:21;;;;;;;4.03;2.60;;;;;;;11.57;67.73;99382.09;5028235;28;20095;-38
2021/04/14 04:58:47;;;;;;;4.38;2.67;;;;;;;11.79;67.20;99374.53;5027824;28;20025;-50
2021/04/14 05:01:12;;;;;;;3.88;2.38;;;;;;;11.96;65.68;99375.59;5029429;28;20086;-38
2021/04/14 05:03:38;;;;;;;4.57;3.00;;;;;;;11.80;66.05;99376.13;5035708;28;20040;-39
2021/04/14 05:06:03;;;;;;;3.92;2.30;;;;;;;11.80;65.60;99378.81;5035250;28;20493;-38
2021/04/14 05:08:29;;;;;;;3.08;2.20;;;;;;;12.06;66.36;99383.88;5037266;28;20415;-51
2021/04/14 05:10:54;;;;;;;4.53;2.22;;;;;;;11.99;66.51;99379.66;5017109;28;20068;-38
2021/04/14 05:13:20;;;;;;;6.78;2.33;;;;;;;11.97;67.14;99379.88;5036933;28;20022;-52
2021/04/14 05:15:46;;;;;;;3.35;2.47;;;;;;;11.81;68.75;99385.78;5038325;28;20647;-39
2021/04/14 05:18:11;;;;;;;2.63;2.20;;;;;;;11.78;68.53;99378.22;5036251;28;20017;-39
2021/04/14 05:20:38;;;;;;;3.70;2.63;;;;;;;11.66;68.92;99378.13;5036721;28;20442;-39
2021/04/14 05:23:04;;;;;;;4.43;2.30;;;;;;;11.44;70.53;99367.88;5037676;28;20024;-54
2021/04/14 05:25:31;;;;;;;4.72;2.53;;;;;;;11.97;68.45;99366.56;5036413;28;20025;-39
2021/04/14 05:28:02;;;;;;;2.65;2.30;;;;;;;12.24;67.90;99366.25;5041199;28;20023;-39
2021/04/14 05:30:27;;;;;;;4.30;2.55;;;;;;;12.37;67.24;99368.75;5036125;28;20107;-39
2021/04/14 05:32:52;;;;;;;4.32;2.55;;;;;;;12.60;66.27;99360.03;5038463;28;20024;-40
2021/04/14 05:35:18;;;;;;;4.60;2.80;;;;;;;12.82;65.58;99355.03;5020829;28;20032;-39
2021/04/14 05:37:43;;;;;;;3.45;2.60;;;;;;;12.80;66.23;99359.78;5038126;28;20017;-39
2021/04/14 05:40:09;;;;;;;8.27;3.15;;;;;;;13.00;65.45;99358.69;5039485;28;20059;-39
2021/04/14 05:42:42;;;;;;;4.18;2.90;;;;;;;12.70;66.08;99355.00;5045338;28;20071;-52
2021/04/14 05:45:09;;;;;;;3.90;2.83;;;;;;;12.26;66.84;99348.16;5048589;28;20021;-54
2021/04/14 05:47:34;;;;;;;3.70;2.63;;;;;;;12.30;66.94;99352.03;5039899;28;20078;-52
2021/04/14 05:50:00;;;;;;;5.50;2.55;;;;;;;12.60;66.46;99354.72;5038073;28;20025;-50
2021/04/14 05:52:26;;;;;;;4.88;3.00;;;;;;;12.88;65.81;99362.13;5036987;28;20029;-53
2021/04/14 05:54:52;;;;;;;6.65;2.90;;;;;;;12.50;67.00;99352.56;5038647;28;20101;-53
2021/04/14 05:57:17;;;;;;;8.45;4.05;;;;;;;13.05;73.31;99351.59;5038072;28;20091;-53
2021/04/14 05:59:43;;;;;;;15.05;7.97;;;;;;;13.11;65.44;99342.66;5037605;28;20067;-54
2021/04/14 06:02:08;;;;;;;5.63;3.95;;;;;;;12.94;65.56;99336.38;5039223;28;20072;-53
2021/04/14 06:04:33;;;;;;;5.70;3.50;;;;;;;13.13;64.66;99336.28;5037147;28;20101;-52
2021/04/14 06:06:59;;;;;;;5.00;3.50;;;;;;;13.24;65.16;99347.00;5038045;28;20036;-52
2021/04/14 06:09:24;;;;;;;5.88;3.83;;;;;;;13.26;66.08;99344.91;5038601;28;20397;-52
2021/04/14 06:11:50;;;;;;;12.27;7.63;;;;;;;13.28;64.66;99348.16;5039627;28;20022;-53
2021/04/14 06:14:15;;;;;;;15.32;10.02;;;;;;;13.36;64.34;99352.38;5048842;28;20070;-39
2021/04/14 06:16:41;;;;;;;10.07;5.55;;;;;;;13.37;63.98;99346.00;5051971;28;20086;-39
2021/04/14 06:19:06;;;;;;;7.30;5.20;;;;;;;13.25;65.14;99345.97;5051631;28;20021;-38
2021/04/14 06:21:32;;;;;;;7.70;4.40;;;;;;;13.29;65.50;99349.78;5052009;28;20131;-38
2021/04/14 06:23:58;;;;;;;7.20;4.40;;;;;;;13.46;64.22;99339.28;5052243;28;20473;-39
2021/04/14 06:28:52;;;;;;;11.80;7.53;;;;;;;14.68;63.39;99350.09;5045683;28;20029;-38
2021/04/14 06:31:18;;;;;;;16.38;7.50;;;;;;;15.38;61.71;99345.38;5043304;28;20035;-39
2021/04/14 06:33:44;;;;;;;10.48;5.90;;;;;;;16.28;60.43;99340.72;5040424;28;20013;-39
2021/04/14 06:36:10;;;;;;;10.57;5.13;;;;;;;16.99;59.42;99329.13;5039124;28;20472;-39
2021/04/14 06:38:41;;;;;;;5.97;3.80;;;;;;;17.35;55.61;99338.28;5040457;28;20064;-39
2021/04/14 06:44:40;;;;;;;4.55;2.90;;;;;;;16.92;55.49;99339.25;5039058;28;20052;-39
2021/04/14 06:47:10;;;;;;;7.07;4.43;;;;;;;16.92;55.22;99342.75;5045840;28;20024;-52
2021/04/14 06:49:44;;;;;;;6.75;4.07;;;;;;;17.00;54.79;99349.53;5049722;28;20139;-51
2021/04/14 06:52:19;;;;;;;5.88;3.00;;;;;;;16.52;54.96;99343.94;5033254;28;20048;-52
2021/04/14 06:54:58;;;;;;;5.30;3.75;;;;;;;16.21;55.42;99337.41;5050272;28;20043;-50
2021/04/14 06:57:33;;;;;;;5.82;3.13;;;;;;;16.67;54.85;99356.72;5034292;28;20103;-51
2021/04/14 07:00:06;;;;;;;6.22;3.60;;;;;;;16.49;55.33;99349.03;5049951;28;20040;-51
2021/04/14 07:02:51;;;;;;;3.97;2.70;;;;;;;16.30;52.77;99348.53;5051131;28;20350;-51
2021/04/14 07:05:25;;;;;;;5.43;3.67;;;;;;;16.32;54.00;99363.31;5035102;28;20087;-53
2021/04/14 07:07:53;;;;;;;5.22;3.08;;;;;;;16.25;52.74;99361.91;5050199;28;20048;-52
2021/04/14 07:10:27;;;;;;;3.50;2.00;;;;;;;16.46;52.14;99353.00;5032891;28;20045;-53
2021/04/14 07:12:54;;;;;;;4.60;2.22;;;;;;;16.22;52.38;99353.28;5050897;28;20025;-50
2021/04/14 07:15:20;;;;;;;3.00;1.95;;;;;;;15.82;53.98;99357.06;5049759;28;20037;-39
2021/04/14 07:17:54;;;;;;;2.80;1.98;;;;;;;16.50;52.48;99356.81;5051167;28;20025;-39
2021/04/14 07:20:44;;;;;;;3.03;1.80;;;;;;;16.89;51.76;99362.09;5051239;28;20052;-38
2021/04/14 07:23:15;;;;;;;6.80;2.17;;;;;;;17.37;51.86;99364.91;5050485;28;20021;-38
2021/04/14 07:26:00;;;;;;;3.00;1.90;;;;;;;17.88;51.19;99367.19;5049354;28;20040;-37
2021/04/14 07:29:03;;;;;;;2.60;1.60;;;;;;;18.24;47.92;99370.84;5034086;28;20031;-38
2021/04/14 07:31:34;;;;;;;2.05;1.38;;;;;;;17.61;50.58;99362.69;5050787;28;20017;-37
2021/04/14 07:34:18;;;;;;;2.25;1.50;;;;;;;18.06;48.63;99360.53;5050882;28;20143;-38
2021/04/14 07:36:46;;;;;;;2.45;1.42;;;;;;;18.16;47.90;99366.78;5050675;28;20040;-38
2021/04/14 07:39:36;;;;;;;3.38;1.60;;;;;;;18.15;48.42;99362.47;5049116;28;20088;-39
2021/04/14 07:42:24;;;;;;;2.95;1.58;;;;;;;18.76;47.62;99359.16;5034820;28;20028;-39
2021/04/14 07:45:05;;;;;;;1.92;1.52;;;;;;;19.81;44.19;99357.03;5050459;28;20029;-39
2021/04/14 07:47:30;;;;;;;2.35;1.70;;;;;;;20.27;44.20;99356.84;5050545;28;20028;-39
2021/04/14 07:49:57;;;;;;;2.92;2.15;;;;;;;19.75;44.41;99357.31;5050424;28;20032;-40
2021/04/14 07:52:25;;;;;;;2.15;1.80;;;;;;;19.77;44.71;99353.25;5050538;28;20094;-39
2021/04/14 07:54:52;;;;;;;2.40;1.80;;;;;;;20.33;43.51;99363.06;5050474;28;20139;-39
2021/04/14 07:57:38;;;;;;;4.00;1.73;;;;;;;20.08;43.92;99355.88;5050521;28;20049;-39
2021/04/14 08:00:16;;;;;;;6.07;1.60;;;;;;;20.15;43.80;99356.38;5050285;28;20163;-39
2021/04/14 08:02:42;;;;;;;2.63;1.40;;;;;;;20.13;43.64;99350.44;5048543;28;20060;-51
2021/04/14 08:05:11;;;;;;;3.45;1.52;;;;;;;19.59;43.87;99351.09;5049818;28;20057;-52
2021/04/14 08:07:39;;;;;;;5.32;2.65;;;;;;;20.21;43.50;99357.97;5049553;28;20029;-49
2021/04/14 08:10:13;;;;;;;4.82;2.25;;;;;;;20.50;42.77;99335.69;5049470;28;20060;-52
2021/04/14 08:13:01;;;;;;;4.10;1.70;;;;;;;20.38;43.14;99346.81;5049860;28;20025;-52
2021/04/14 08:15:39;;;;;;;2.45;1.58;;;;;;;21.31;41.25;99319.97;5048702;28;20094;-49
2021/04/14 08:18:17;;;;;;;2.08;1.60;;;;;;;21.76;40.25;99331.47;5049566;28;20492;-51
2021/04/14 08:21:02;;;;;;;7.25;1.70;;;;;;;21.56;40.33;99339.81;5048366;28;20507;-52
2021/04/14 08:23:28;;;;;;;5.20;1.63;;;;;;;21.89;39.87;99340.81;5049484;28;20119;-51
2021/04/14 08:25:55;;;;;;;3.15;2.00;;;;;;;21.20;41.10;99346.31;5049611;28;20069;-51
2021/04/14 08:28:33;;;;;;;2.35;1.40;;;;;;;20.89;41.41;99337.63;5049926;28;20115;-52
2021/04/14 08:31:35;;;;;;;4.60;1.80;;;;;;;21.14;40.61;99333.13;5049698;28;20028;-53
2021/04/14 08:34:14;;;;;;;1.65;1.40;;;;;;;22.14;38.25;99331.59;5041732;28;20112;-50
2021/04/14 08:36:46;;;;;;;5.28;1.63;;;;;;;22.51;36.89;99332.75;5041338;28;20024;-53
2021/04/14 08:39:21;;;;;;;3.55;1.25;;;;;;;23.05;37.79;99332.53;5039281;28;20025;-51
2021/04/14 08:41:46;;;;;;;1.23;1.13;;;;;;;23.13;37.23;99329.13;5039186;28;20496;-50
2021/04/14 08:44:16;;;;;;;3.10;1.20;;;;;;;23.87;36.66;99320.22;5028688;28;20025;-51
2021/04/14 08:46:43;;;;;;;3.13;1.30;;;;;;;23.39;36.43;99316.72;5029379;28;20478;-51
2021/04/14 08:49:21;;;;;;;3.40;1.80;;;;;;;23.03;35.94;99320.03;5047714;28;20094;-51
2021/04/14 08:51:48;;;;;;;2.45;1.60;;;;;;;24.14;35.01;99320.22;5044533;28;20408;-38
2021/04/14 08:54:16;;;;;;;3.20;1.35;;;;;;;23.68;34.90;99310.22;5038376;28;20079;-38
2021/04/14 08:56:42;;;;;;;3.45;1.30;;;;;;;23.43;35.66;99315.03;5037901;28;20100;-39
2021/04/14 08:59:08;;;;;;;1.80;1.13;;;;;;;23.79;34.26;99311.66;5039280;28;20078;-39
2021/04/14 09:01:34;;;;;;;2.88;1.40;;;;;;;24.59;33.87;99309.47;5022036;28;20028;-39
2021/04/14 09:04:02;;;;;;;3.95;1.40;;;;;;;23.82;34.34;99304.84;5031893;28;20025;-39
2021/04/14 09:06:30;;;;;;;1.83;1.37;;;;;;;23.94;34.44;99302.41;5029409;28;20533;-39
2021/04/14 09:08:57;;;;;;;4.80;1.60;;;;;;;23.19;35.22;99276.41;5027789;28;20272;-38
2021/04/14 09:11:25;;;;;;;2.63;1.50;;;;;;;23.72;35.42;99307.72;5027374;28;20033;-39
2021/04/14 09:13:56;;;;;;;4.03;1.75;;;;;;;22.40;37.34;99296.84;5029196;28;20030;-38
2021/04/14 09:16:33;;;;;;;1.95;1.50;;;;;;;21.88;37.98;99295.88;5036692;28;20033;-39
2021/04/14 09:19:07;;;;;;;3.08;1.60;;;;;;;22.04;38.09;99293.78;5022498;28;20025;-52
2021/04/14 09:21:44;;;;;;;3.20;2.38;;;;;;;21.24;39.94;99281.63;5047978;28;20076;-38
2021/04/14 09:24:27;;;;;;;3.97;1.80;;;;;;;21.21;38.87;99287.59;5027430;28;20044;-39
2021/04/14 09:26:55;;;;;;;3.72;1.98;;;;;;;21.26;39.38;99282.13;5027082;28;20051;-39
2021/04/14 09:29:45;;;;;;;2.67;1.77;;;;;;;19.88;41.83;99284.66;5027408;28;20029;-39
2021/04/14 09:32:12;;;;;;;4.55;1.70;;;;;;;20.00;42.39;99275.44;4996293;28;20121;-40
2021/04/14 09:34:40;;;;;;;2.88;1.70;;;;;;;21.07;40.54;99272.03;5027956;28;20409;-40
2021/04/14 09:37:12;;;;;;;3.17;1.95;;;;;;;20.17;41.04;99248.06;5027641;28;20104;-39
2021/04/14 09:39:54;;;;;;;4.13;2.10;;;;;;;20.17;42.58;99258.88;5027935;28;20697;-39
2021/04/14 09:42:22;;;;;;;3.13;1.70;;;;;;;19.93;42.75;99256.81;5029346;28;20033;-40
2021/04/14 09:44:48;;;;;;;2.33;1.42;;;;;;;20.25;41.82;99255.56;5028933;28;20026;-39
2021/04/14 09:47:32;;;;;;;2.97;1.40;;;;;;;20.17;42.59;99254.28;5036932;28;20099;-40
2021/04/14 09:50:00;;;;;;;2.20;1.58;;;;;;;20.25;41.90;99242.06;5053171;28;20146;-40
2021/04/14 09:52:49;;;;;;;5.07;1.77;;;;;;;20.10;42.70;99257.28;5053418;28;20048;-39
2021/04/14 09:55:28;;;;;;;3.60;2.00;;;;;;;20.99;41.83;99256.41;5047496;28;20033;-39
2021/04/14 09:57:53;;;;;;;4.87;2.20;;;;;;;20.63;41.78;99262.09;5035721;28;20025;-39
2021/04/14 10:00:28;;;;;;;2.50;1.90;;;;;;;19.91;42.91;99262.50;5046041;28;20520;-39
2021/04/14 10:02:58;;;;;;;2.80;1.80;;;;;;;20.05;42.67;99253.81;5031624;28;20040;-39
2021/04/14 10:05:28;;;;;;;4.18;1.90;;;;;;;20.21;42.25;99249.13;5015471;28;20482;-41
2021/04/14 10:07:53;;;;;;;;;;;;;;;20.25;42.22;99244.78;5015438;28;20091;-38
2021/04/14 10:10:20;;;;;;;3.10;2.40;;;;;;;18.99;44.30;99216.06;5031067;28;19922;-40
2021/04/14 10:12:46;;;;;;;4.13;2.50;;;;;;;19.60;43.22;99242.88;5032139;28;20029;-38
2021/04/14 10:15:12;;;;;;;4.53;2.55;;;;;;;19.86;41.98;99242.81;5030904;28;20065;-39
2021/04/14 10:17:37;;;;;;;4.75;2.70;;;;;;;19.18;43.00;99249.47;5031531;28;20048;-39
2021/04/14 10:20:25;;;;;;;4.00;2.65;;;;;;;18.59;43.91;99255.38;5032281;28;20455;-39
2021/04/14 10:22:51;;;;;;;3.60;3.08;;;;;;;19.56;42.50;99249.13;5032235;28;20025;-39
2021/04/14 10:25:27;;;;;;;3.28;2.58;;;;;;;19.01;43.40;99259.72;5014238;28;20022;-40
2021/04/14 10:28:22;;;;;;;4.75;3.40;;;;;;;18.80;44.38;99256.19;5030905;28;20080;-39
2021/04/14 10:31:03;;;;;;;3.40;3.10;;;;;;;19.46;42.35;99245.34;5032537;28;20021;-39
2021/04/14 10:33:29;;;;;;;4.57;3.05;;;;;;;19.28;42.50;99240.53;5030648;28;20131;-39
2021/04/14 10:35:55;;;;;;;6.20;3.22;;;;;;;18.97;42.80;99253.25;5031707;28;20049;-39
2021/04/14 10:38:34;;;;;;;5.03;3.10;;;;;;;19.37;42.26;99256.97;5032219;28;20215;-39
2021/04/14 10:40:59;;;;;;;4.75;2.85;;;;;;;19.30;42.29;99249.97;5031958;28;20492;-39
2021/04/14 10:43:26;;;;;;;5.10;3.15;;;;;;;18.94;43.62;99250.03;5030740;28;20166;-39
2021/04/14 10:45:52;;;;;;;3.90;2.97;;;;;;;18.92;43.00;99241.41;5032379;28;20434;-40
2021/04/14 10:48:18;;;;;;;6.80;2.75;;;;;;;19.59;41.37;99243.16;5023929;28;20032;-39
2021/04/14 10:50:43;;;;;;;3.40;2.90;;;;;;;18.95;42.48;99251.63;5030423;28;20025;-39
2021/04/14 10:53:09;;;;;;;5.20;2.83;;;;;;;18.40;43.38;99247.00;5030519;28;20025;-39
2021/04/14 10:55:38;;;;;;;4.18;3.00;;;;;;;19.22;42.45;99237.03;5030745;28;20026;-39
2021/04/14 10:58:04;;;;;;;3.83;3.10;;;;;;;19.70;40.90;99233.94;5013663;28;20032;-41
2021/04/14 11:00:32;;;;;;;7.90;2.65;;;;;;;18.96;41.78;99247.03;5030214;28;20108;-40
2021/04/14 11:03:05;;;;;;;3.97;2.85;;;;;;;19.05;40.98;99240.03;5030576;28;20021;-40
2021/04/14 11:05:31;;;;;;;5.57;2.95;;;;;;;19.34;40.30;99240.25;5030155;28;20045;-38
2021/04/14 11:07:56;;;;;;;5.47;3.28;;;;;;;18.25;42.83;99240.50;5030442;28;20090;-40
2021/04/14 11:10:27;;;;;;;6.90;2.90;;;;;;;17.75;42.99;99241.94;5030443;28;20541;-39
2021/04/14 11:12:54;;;;;;;6.68;3.20;;;;;;;18.42;42.52;99242.16;5029052;28;20508;-39
2021/04/14 11:15:22;;;;;;;4.85;3.20;;;;;;;17.75;43.85;99242.72;5012998;28;20044;-39
2021/04/14 11:18:04;;;;;;;6.63;3.92;;;;;;;17.16;44.78;99251.03;5030572;28;20052;-38
2021/04/14 11:21:22;;;;;;;4.25;3.25;;;;;;;17.60;44.86;99250.75;5031290;28;20021;-39
2021/04/14 11:23:39;;;;;;;4.30;3.67;;;;;;;17.82;45.10;99241.69;5029322;28;20151;-39
2021/04/14 11:26:20;;;;;;;5.50;3.70;;;;;;;17.78;44.99;99228.78;5031182;28;20097;-39
2021/04/14 11:28:45;;;;;;;7.28;3.78;;;;;;;18.08;44.59;99234.53;5030246;28;20187;-39
2021/04/14 11:31:12;;;;;;;4.93;3.60;;;;;;;18.29;43.54;99219.22;5031312;28;20468;-39
2021/04/14 11:33:44;;;;;;;3.85;3.10;;;;;;;17.69;44.89;99219.56;5031092;28;20124;-39
2021/04/14 11:36:26;;;;;;;4.35;3.70;;;;;;;17.84;44.30;99218.88;5029999;28;20030;-39
2021/04/14 11:39:00;;;;;;;4.93;3.25;;;;;;;18.64;43.03;99213.06;5031205;28;20025;-39
2021/04/14 11:41:34;;;;;;;5.05;3.35;;;;;;;17.85;43.11;99222.34;5031037;28;20036;-39